This is the latest recevied weather packets stored in our database for station/object N7BTW-13. If no packets are shown the sender has not sent any weather packets the latest 10 day(s).
| Time | Temp. | Humidity | Pressure | Rain* | Wind** | Luminosity | Snow |
|---|---|---|---|---|---|---|---|
| 1777772407 | 21.11° C | 71% | 1011.9 hPa | 0 mm | - | - | - |
| 1777771807 | 21.11° C | 70% | 1011.9 hPa | 0 mm | - | - | - |
| 1777771207 | 21.11° C | 70% | 1011.8 hPa | 0 mm | - | - | - |
| 1777770607 | 21.67° C | 69% | 1011.8 hPa | 0 mm | - | - | - |
| 1777770006 | 22.22° C | 64% | 1011.8 hPa | 0 mm | - | - | - |
| 1777769406 | 22.22° C | 65% | 1011.8 hPa | 0 mm | - | - | - |
| 1777768807 | 22.22° C | 65% | 1011.8 hPa | 0 mm | - | - | - |
| 1777768206 | 22.22° C | 64% | 1011.8 hPa | 0 mm | - | - | - |
| 1777767606 | 22.22° C | 64% | 1011.8 hPa | 0 mm | - | - | - |
| 1777767007 | 22.78° C | 63% | 1011.9 hPa | 0 mm | - | - | - |
| 1777766406 | 23.33° C | 62% | 1012 hPa | 0 mm | - | - | - |
| 1777765806 | 23.33° C | 63% | 1012 hPa | 0 mm | - | - | - |
| 1777765206 | 23.33° C | 63% | 1012.3 hPa | 0 mm | - | - | - |
| 1777764607 | 23.33° C | 63% | 1012.4 hPa | 0 mm | - | - | - |
| 1777764005 | 22.78° C | 65% | 1012.6 hPa | 0 mm | - | - | - |
| 1777763409 | 21.67° C | 67% | 1012.8 hPa | 0 mm | - | - | - |
| 1777762807 | 21.67° C | 67% | 1012.9 hPa | 0 mm | - | - | - |
| 1777762207 | 21.67° C | 70% | 1013 hPa | 0 mm | - | - | - |
| 1777761606 | 21.11° C | 68% | 1013.2 hPa | 0 mm | - | - | - |
| 1777761006 | 21.67° C | 68% | 1013.4 hPa | 0 mm | - | - | - |
| 1777760407 | 21.67° C | 65% | 1013.6 hPa | 0 mm | - | - | - |
| 1777759807 | 22.78° C | 64% | 1013.7 hPa | 0 mm | - | - | - |
| 1777759206 | 22.78° C | 65% | 1013.9 hPa | 0 mm | - | - | - |
| 1777758607 | 21.67° C | 67% | 1014 hPa | 0 mm | - | - | - |
| 1777758007 | 20.56° C | 68% | 1014 hPa | 0 mm | - | - | - |
* Rain latest hour (hover to see other rain measurements)
** Current wind speed in m/s (hover to see current wind gust speed)